sensor_id;sensor_type;location;lat;lon;timestamp;P1;durP1;ratioP1;P2;durP2;ratioP2
75362;SDS011;64122;51.988;5.892;2023-04-25T00:00:38;11.32;;;2.47;;
75362;SDS011;64122;51.988;5.892;2023-04-25T00:03:08;12.02;;;2.38;;
75362;SDS011;64122;51.988;5.892;2023-04-25T00:05:37;11.38;;;2.95;;
75362;SDS011;64122;51.988;5.892;2023-04-25T00:08:06;11.07;;;2.25;;
75362;SDS011;64122;51.988;5.892;2023-04-25T00:10:36;9.15;;;2.28;;
75362;SDS011;64122;51.988;5.892;2023-04-25T00:13:05;14.15;;;2.95;;
75362;SDS011;64122;51.988;5.892;2023-04-25T00:15:37;14.05;;;2.45;;
75362;SDS011;64122;51.988;5.892;2023-04-25T00:18:07;10.70;;;2.22;;
75362;SDS011;64122;51.988;5.892;2023-04-25T00:20:36;10.60;;;2.58;;
75362;SDS011;64122;51.988;5.892;2023-04-25T00:23:06;11.45;;;2.60;;
75362;SDS011;64122;51.988;5.892;2023-04-25T00:25:35;14.32;;;2.58;;
75362;SDS011;64122;51.988;5.892;2023-04-25T00:28:05;13.52;;;2.45;;
75362;SDS011;64122;51.988;5.892;2023-04-25T00:30:36;11.23;;;2.80;;
75362;SDS011;64122;51.988;5.892;2023-04-25T00:33:07;12.57;;;2.67;;
75362;SDS011;64122;51.988;5.892;2023-04-25T00:35:36;13.13;;;2.90;;
75362;SDS011;64122;51.988;5.892;2023-04-25T00:38:06;13.23;;;2.92;;
75362;SDS011;64122;51.988;5.892;2023-04-25T00:40:36;13.80;;;3.55;;
75362;SDS011;64122;51.988;5.892;2023-04-25T00:43:05;16.45;;;3.92;;
75362;SDS011;64122;51.988;5.892;2023-04-25T00:45:37;15.18;;;2.60;;
75362;SDS011;64122;51.988;5.892;2023-04-25T00:48:07;12.15;;;2.70;;
75362;SDS011;64122;51.988;5.892;2023-04-25T00:50:37;9.02;;;2.63;;
75362;SDS011;64122;51.988;5.892;2023-04-25T00:53:06;12.02;;;2.58;;
75362;SDS011;64122;51.988;5.892;2023-04-25T00:55:36;11.98;;;3.20;;
75362;SDS011;64122;51.988;5.892;2023-04-25T00:58:05;15.70;;;3.25;;
75362;SDS011;64122;51.988;5.892;2023-04-25T01:00:37;14.27;;;2.85;;
75362;SDS011;64122;51.988;5.892;2023-04-25T01:03:06;10.88;;;2.72;;
75362;SDS011;64122;51.988;5.892;2023-04-25T01:05:35;11.52;;;2.38;;
75362;SDS011;64122;51.988;5.892;2023-04-25T01:08:05;14.63;;;2.70;;
75362;SDS011;64122;51.988;5.892;2023-04-25T01:10:34;16.52;;;3.22;;
75362;SDS011;64122;51.988;5.892;2023-04-25T01:13:03;11.82;;;3.17;;
75362;SDS011;64122;51.988;5.892;2023-04-25T01:15:33;12.63;;;3.15;;
75362;SDS011;64122;51.988;5.892;2023-04-25T01:18:06;19.00;;;3.20;;
75362;SDS011;64122;51.988;5.892;2023-04-25T01:20:36;13.05;;;2.95;;
75362;SDS011;64122;51.988;5.892;2023-04-25T01:23:10;20.65;;;6.30;;
75362;SDS011;64122;51.988;5.892;2023-04-25T01:25:39;15.30;;;3.65;;
75362;SDS011;64122;51.988;5.892;2023-04-25T01:28:09;18.20;;;3.28;;
75362;SDS011;64122;51.988;5.892;2023-04-25T01:30:38;11.90;;;2.80;;
75362;SDS011;64122;51.988;5.892;2023-04-25T01:33:09;18.42;;;5.20;;
75362;SDS011;64122;51.988;5.892;2023-04-25T01:35:38;14.18;;;3.15;;
75362;SDS011;64122;51.988;5.892;2023-04-25T01:38:11;14.43;;;3.90;;
75362;SDS011;64122;51.988;5.892;2023-04-25T01:43:09;10.63;;;2.70;;
75362;SDS011;64122;51.988;5.892;2023-04-25T01:45:40;12.43;;;3.17;;
75362;SDS011;64122;51.988;5.892;2023-04-25T01:48:11;13.70;;;3.25;;
75362;SDS011;64122;51.988;5.892;2023-04-25T01:50:43;18.55;;;3.60;;
75362;SDS011;64122;51.988;5.892;2023-04-25T01:53:15;14.75;;;3.33;;
75362;SDS011;64122;51.988;5.892;2023-04-25T01:55:45;11.52;;;3.03;;
75362;SDS011;64122;51.988;5.892;2023-04-25T01:58:17;11.85;;;2.92;;
75362;SDS011;64122;51.988;5.892;2023-04-25T02:00:58;13.52;;;3.70;;
75362;SDS011;64122;51.988;5.892;2023-04-25T02:03:33;10.52;;;3.50;;
75362;SDS011;64122;51.988;5.892;2023-04-25T02:06:06;11.52;;;3.00;;
75362;SDS011;64122;51.988;5.892;2023-04-25T02:08:43;13.27;;;2.88;;
75362;SDS011;64122;51.988;5.892;2023-04-25T02:11:13;14.27;;;3.20;;
75362;SDS011;64122;51.988;5.892;2023-04-25T02:13:53;15.25;;;3.70;;
75362;SDS011;64122;51.988;5.892;2023-04-25T02:16:37;14.73;;;3.45;;
75362;SDS011;64122;51.988;5.892;2023-04-25T02:19:09;14.77;;;3.20;;
75362;SDS011;64122;51.988;5.892;2023-04-25T02:21:39;15.25;;;3.22;;
75362;SDS011;64122;51.988;5.892;2023-04-25T02:24:13;14.07;;;3.03;;
75362;SDS011;64122;51.988;5.892;2023-04-25T02:26:42;14.35;;;3.03;;
75362;SDS011;64122;51.988;5.892;2023-04-25T02:29:12;12.20;;;2.55;;
75362;SDS011;64122;51.988;5.892;2023-04-25T02:31:41;10.98;;;3.33;;
75362;SDS011;64122;51.988;5.892;2023-04-25T02:34:11;10.50;;;3.17;;
75362;SDS011;64122;51.988;5.892;2023-04-25T02:36:40;15.10;;;3.22;;
75362;SDS011;64122;51.988;5.892;2023-04-25T02:39:09;16.55;;;3.30;;
75362;SDS011;64122;51.988;5.892;2023-04-25T02:41:41;10.05;;;2.50;;
75362;SDS011;64122;51.988;5.892;2023-04-25T02:44:10;13.10;;;2.53;;
75362;SDS011;64122;51.988;5.892;2023-04-25T02:46:39;12.95;;;3.50;;
75362;SDS011;64122;51.988;5.892;2023-04-25T02:49:09;12.98;;;2.55;;
75362;SDS011;64122;51.988;5.892;2023-04-25T02:51:38;22.08;;;5.32;;
75362;SDS011;64122;51.988;5.892;2023-04-25T02:54:07;14.98;;;3.10;;
75362;SDS011;64122;51.988;5.892;2023-04-25T02:56:43;16.52;;;2.92;;
75362;SDS011;64122;51.988;5.892;2023-04-25T02:59:18;16.65;;;2.70;;
75362;SDS011;64122;51.988;5.892;2023-04-25T03:01:47;16.73;;;2.92;;
75362;SDS011;64122;51.988;5.892;2023-04-25T03:04:16;17.85;;;4.15;;
75362;SDS011;64122;51.988;5.892;2023-04-25T03:06:47;13.63;;;3.10;;
75362;SDS011;64122;51.988;5.892;2023-04-25T03:09:16;11.70;;;2.80;;
75362;SDS011;64122;51.988;5.892;2023-04-25T03:11:48;13.00;;;2.97;;
75362;SDS011;64122;51.988;5.892;2023-04-25T03:14:18;17.60;;;3.30;;
75362;SDS011;64122;51.988;5.892;2023-04-25T03:16:47;10.75;;;2.75;;
75362;SDS011;64122;51.988;5.892;2023-04-25T03:19:16;13.45;;;2.80;;
75362;SDS011;64122;51.988;5.892;2023-04-25T03:21:47;15.35;;;3.38;;
75362;SDS011;64122;51.988;5.892;2023-04-25T03:24:17;12.38;;;3.20;;
75362;SDS011;64122;51.988;5.892;2023-04-25T03:26:49;9.15;;;2.38;;
75362;SDS011;64122;51.988;5.892;2023-04-25T03:29:18;13.63;;;2.72;;
75362;SDS011;64122;51.988;5.892;2023-04-25T03:31:51;14.25;;;2.70;;
75362;SDS011;64122;51.988;5.892;2023-04-25T03:34:20;15.48;;;3.22;;
75362;SDS011;64122;51.988;5.892;2023-04-25T03:36:50;19.13;;;4.05;;
75362;SDS011;64122;51.988;5.892;2023-04-25T03:39:19;12.57;;;3.03;;
75362;SDS011;64122;51.988;5.892;2023-04-25T03:41:53;15.35;;;3.17;;
75362;SDS011;64122;51.988;5.892;2023-04-25T03:44:22;17.92;;;3.55;;
75362;SDS011;64122;51.988;5.892;2023-04-25T03:46:52;15.80;;;3.83;;
75362;SDS011;64122;51.988;5.892;2023-04-25T03:49:22;17.38;;;3.40;;
75362;SDS011;64122;51.988;5.892;2023-04-25T03:51:57;11.05;;;2.72;;
75362;SDS011;64122;51.988;5.892;2023-04-25T03:54:29;12.60;;;3.65;;
75362;SDS011;64122;51.988;5.892;2023-04-25T03:57:06;12.02;;;2.58;;
75362;SDS011;64122;51.988;5.892;2023-04-25T03:59:38;14.52;;;3.20;;
75362;SDS011;64122;51.988;5.892;2023-04-25T04:02:10;13.55;;;2.97;;
75362;SDS011;64122;51.988;5.892;2023-04-25T04:04:40;18.65;;;3.80;;
75362;SDS011;64122;51.988;5.892;2023-04-25T04:07:10;17.33;;;3.90;;
75362;SDS011;64122;51.988;5.892;2023-04-25T04:09:41;14.55;;;2.88;;
75362;SDS011;64122;51.988;5.892;2023-04-25T04:12:20;11.82;;;2.83;;
75362;SDS011;64122;51.988;5.892;2023-04-25T04:14:49;11.52;;;2.60;;
75362;SDS011;64122;51.988;5.892;2023-04-25T04:17:18;11.32;;;3.20;;
75362;SDS011;64122;51.988;5.892;2023-04-25T04:19:48;12.27;;;2.80;;
75362;SDS011;64122;51.988;5.892;2023-04-25T04:22:19;16.40;;;2.90;;
75362;SDS011;64122;51.988;5.892;2023-04-25T04:24:50;12.35;;;2.50;;
75362;SDS011;64122;51.988;5.892;2023-04-25T04:27:45;11.38;;;2.97;;
75362;SDS011;64122;51.988;5.892;2023-04-25T04:30:32;13.23;;;2.67;;
75362;SDS011;64122;51.988;5.892;2023-04-25T04:33:06;9.70;;;3.17;;
75362;SDS011;64122;51.988;5.892;2023-04-25T04:35:37;16.67;;;3.53;;
75362;SDS011;64122;51.988;5.892;2023-04-25T04:38:08;16.20;;;3.50;;
75362;SDS011;64122;51.988;5.892;2023-04-25T04:40:37;11.13;;;2.47;;
75362;SDS011;64122;51.988;5.892;2023-04-25T04:43:24;11.63;;;3.72;;
75362;SDS011;64122;51.988;5.892;2023-04-25T04:46:13;12.40;;;3.10;;
75362;SDS011;64122;51.988;5.892;2023-04-25T04:49:10;10.55;;;2.55;;
75362;SDS011;64122;51.988;5.892;2023-04-25T04:51:40;14.45;;;3.22;;
75362;SDS011;64122;51.988;5.892;2023-04-25T04:54:35;8.88;;;2.97;;
75362;SDS011;64122;51.988;5.892;2023-04-25T04:57:15;13.95;;;3.88;;
75362;SDS011;64122;51.988;5.892;2023-04-25T05:00:06;12.30;;;2.63;;
75362;SDS011;64122;51.988;5.892;2023-04-25T05:03:06;13.90;;;2.63;;
75362;SDS011;64122;51.988;5.892;2023-04-25T05:05:50;14.75;;;2.70;;
75362;SDS011;64122;51.988;5.892;2023-04-25T05:08:39;13.38;;;2.88;;
75362;SDS011;64122;51.988;5.892;2023-04-25T05:11:12;16.65;;;5.05;;
75362;SDS011;64122;51.988;5.892;2023-04-25T05:14:01;12.80;;;4.18;;
75362;SDS011;64122;51.988;5.892;2023-04-25T05:19:58;12.70;;;2.97;;
75362;SDS011;64122;51.988;5.892;2023-04-25T05:22:39;14.98;;;3.15;;
75362;SDS011;64122;51.988;5.892;2023-04-25T05:25:12;12.73;;;2.83;;
75362;SDS011;64122;51.988;5.892;2023-04-25T05:28:20;14.85;;;3.47;;
75362;SDS011;64122;51.988;5.892;2023-04-25T05:31:12;10.55;;;3.42;;
75362;SDS011;64122;51.988;5.892;2023-04-25T05:34:04;10.90;;;3.25;;
75362;SDS011;64122;51.988;5.892;2023-04-25T05:36:59;9.30;;;3.05;;
75362;SDS011;64122;51.988;5.892;2023-04-25T05:39:29;11.95;;;3.35;;
75362;SDS011;64122;51.988;5.892;2023-04-25T05:42:16;11.40;;;2.95;;
75362;SDS011;64122;51.988;5.892;2023-04-25T05:45:11;12.73;;;4.00;;
75362;SDS011;64122;51.988;5.892;2023-04-25T05:48:08;11.27;;;2.90;;
75362;SDS011;64122;51.988;5.892;2023-04-25T05:50:59;10.68;;;3.15;;
75362;SDS011;64122;51.988;5.892;2023-04-25T05:53:57;13.50;;;3.03;;
75362;SDS011;64122;51.988;5.892;2023-04-25T05:56:26;11.25;;;3.60;;
75362;SDS011;64122;51.988;5.892;2023-04-25T05:58:56;13.57;;;3.42;;
75362;SDS011;64122;51.988;5.892;2023-04-25T06:01:25;18.20;;;4.38;;
75362;SDS011;64122;51.988;5.892;2023-04-25T06:03:54;7.93;;;2.45;;
75362;SDS011;64122;51.988;5.892;2023-04-25T06:06:26;8.70;;;2.70;;
75362;SDS011;64122;51.988;5.892;2023-04-25T06:08:58;14.63;;;3.10;;
75362;SDS011;64122;51.988;5.892;2023-04-25T06:11:27;16.13;;;4.38;;
75362;SDS011;64122;51.988;5.892;2023-04-25T06:13:57;17.30;;;5.65;;
75362;SDS011;64122;51.988;5.892;2023-04-25T06:16:26;15.02;;;2.78;;
75362;SDS011;64122;51.988;5.892;2023-04-25T06:18:55;16.13;;;3.20;;
75362;SDS011;64122;51.988;5.892;2023-04-25T06:21:28;6.93;;;2.30;;
75362;SDS011;64122;51.988;5.892;2023-04-25T06:26:28;9.18;;;2.95;;
75362;SDS011;64122;51.988;5.892;2023-04-25T06:28:57;12.50;;;3.08;;
75362;SDS011;64122;51.988;5.892;2023-04-25T06:31:26;11.43;;;3.05;;
75362;SDS011;64122;51.988;5.892;2023-04-25T06:33:59;13.60;;;2.78;;
75362;SDS011;64122;51.988;5.892;2023-04-25T06:36:33;12.05;;;3.20;;
75362;SDS011;64122;51.988;5.892;2023-04-25T06:39:07;11.68;;;3.42;;
75362;SDS011;64122;51.988;5.892;2023-04-25T06:41:36;12.18;;;3.05;;
75362;SDS011;64122;51.988;5.892;2023-04-25T06:44:07;19.17;;;5.80;;
75362;SDS011;64122;51.988;5.892;2023-04-25T06:46:48;13.27;;;2.70;;
75362;SDS011;64122;51.988;5.892;2023-04-25T06:49:18;12.85;;;3.38;;
75362;SDS011;64122;51.988;5.892;2023-04-25T06:51:50;14.15;;;3.20;;
75362;SDS011;64122;51.988;5.892;2023-04-25T06:54:19;7.95;;;2.72;;
75362;SDS011;64122;51.988;5.892;2023-04-25T06:59:28;15.95;;;4.07;;
75362;SDS011;64122;51.988;5.892;2023-04-25T07:01:58;12.38;;;3.35;;
75362;SDS011;64122;51.988;5.892;2023-04-25T07:04:28;11.60;;;2.58;;
75362;SDS011;64122;51.988;5.892;2023-04-25T07:07:00;11.23;;;3.38;;
75362;SDS011;64122;51.988;5.892;2023-04-25T07:09:40;8.85;;;2.38;;
75362;SDS011;64122;51.988;5.892;2023-04-25T07:12:10;15.73;;;3.05;;
75362;SDS011;64122;51.988;5.892;2023-04-25T07:14:39;8.68;;;2.35;;
75362;SDS011;64122;51.988;5.892;2023-04-25T07:17:09;9.85;;;2.95;;
75362;SDS011;64122;51.988;5.892;2023-04-25T07:19:39;10.75;;;2.90;;
75362;SDS011;64122;51.988;5.892;2023-04-25T07:22:12;10.60;;;3.08;;
75362;SDS011;64122;51.988;5.892;2023-04-25T07:27:14;10.98;;;2.25;;
75362;SDS011;64122;51.988;5.892;2023-04-25T07:29:50;9.73;;;2.13;;
75362;SDS011;64122;51.988;5.892;2023-04-25T07:32:22;9.38;;;2.50;;
75362;SDS011;64122;51.988;5.892;2023-04-25T07:34:51;8.73;;;1.95;;
75362;SDS011;64122;51.988;5.892;2023-04-25T07:37:23;8.68;;;2.10;;
75362;SDS011;64122;51.988;5.892;2023-04-25T07:40:04;7.35;;;1.80;;
75362;SDS011;64122;51.988;5.892;2023-04-25T07:42:35;10.68;;;2.47;;
75362;SDS011;64122;51.988;5.892;2023-04-25T07:45:06;8.00;;;2.10;;
75362;SDS011;64122;51.988;5.892;2023-04-25T07:47:38;8.85;;;2.13;;
75362;SDS011;64122;51.988;5.892;2023-04-25T07:50:08;7.70;;;2.08;;
75362;SDS011;64122;51.988;5.892;2023-04-25T07:52:41;12.93;;;2.25;;
75362;SDS011;64122;51.988;5.892;2023-04-25T07:55:30;6.47;;;1.70;;
75362;SDS011;64122;51.988;5.892;2023-04-25T07:58:06;12.18;;;2.30;;
75362;SDS011;64122;51.988;5.892;2023-04-25T08:00:37;11.13;;;1.60;;
75362;SDS011;64122;51.988;5.892;2023-04-25T08:03:25;8.60;;;1.90;;
75362;SDS011;64122;51.988;5.892;2023-04-25T08:05:56;11.90;;;1.85;;
75362;SDS011;64122;51.988;5.892;2023-04-25T08:08:32;7.43;;;1.70;;
75362;SDS011;64122;51.988;5.892;2023-04-25T08:11:02;10.18;;;1.48;;
75362;SDS011;64122;51.988;5.892;2023-04-25T08:13:31;8.52;;;2.05;;
75362;SDS011;64122;51.988;5.892;2023-04-25T08:16:01;7.97;;;1.50;;
75362;SDS011;64122;51.988;5.892;2023-04-25T08:18:30;9.50;;;2.75;;
75362;SDS011;64122;51.988;5.892;2023-04-25T08:20:59;7.82;;;1.42;;
75362;SDS011;64122;51.988;5.892;2023-04-25T08:23:32;8.88;;;1.60;;
75362;SDS011;64122;51.988;5.892;2023-04-25T08:26:04;6.50;;;1.30;;
75362;SDS011;64122;51.988;5.892;2023-04-25T08:28:36;8.25;;;1.88;;
75362;SDS011;64122;51.988;5.892;2023-04-25T08:31:06;7.60;;;1.45;;
75362;SDS011;64122;51.988;5.892;2023-04-25T08:33:45;7.03;;;1.42;;
75362;SDS011;64122;51.988;5.892;2023-04-25T08:36:26;6.57;;;1.48;;
75362;SDS011;64122;51.988;5.892;2023-04-25T08:38:58;12.27;;;1.67;;
75362;SDS011;64122;51.988;5.892;2023-04-25T08:41:28;7.25;;;1.58;;
75362;SDS011;64122;51.988;5.892;2023-04-25T08:43:57;6.43;;;1.42;;
75362;SDS011;64122;51.988;5.892;2023-04-25T08:46:28;7.68;;;1.55;;
75362;SDS011;64122;51.988;5.892;2023-04-25T08:49:11;10.52;;;1.80;;
75362;SDS011;64122;51.988;5.892;2023-04-25T08:51:44;7.63;;;1.40;;
75362;SDS011;64122;51.988;5.892;2023-04-25T08:54:21;5.85;;;1.45;;
75362;SDS011;64122;51.988;5.892;2023-04-25T08:56:54;6.95;;;1.23;;
75362;SDS011;64122;51.988;5.892;2023-04-25T08:59:25;8.75;;;1.50;;
75362;SDS011;64122;51.988;5.892;2023-04-25T09:01:55;8.13;;;1.60;;
75362;SDS011;64122;51.988;5.892;2023-04-25T09:04:25;8.85;;;1.55;;
75362;SDS011;64122;51.988;5.892;2023-04-25T09:06:54;9.90;;;1.27;;
75362;SDS011;64122;51.988;5.892;2023-04-25T09:09:27;6.07;;;1.20;;
75362;SDS011;64122;51.988;5.892;2023-04-25T09:11:57;6.22;;;1.10;;
75362;SDS011;64122;51.988;5.892;2023-04-25T09:14:28;5.55;;;0.95;;
75362;SDS011;64122;51.988;5.892;2023-04-25T09:17:12;5.10;;;1.33;;
75362;SDS011;64122;51.988;5.892;2023-04-25T09:19:44;8.13;;;1.85;;
75362;SDS011;64122;51.988;5.892;2023-04-25T09:22:20;6.65;;;1.17;;
75362;SDS011;64122;51.988;5.892;2023-04-25T09:24:52;10.13;;;1.70;;
75362;SDS011;64122;51.988;5.892;2023-04-25T09:27:25;4.60;;;1.25;;
75362;SDS011;64122;51.988;5.892;2023-04-25T09:30:12;4.53;;;1.00;;
75362;SDS011;64122;51.988;5.892;2023-04-25T09:33:03;8.23;;;1.20;;
75362;SDS011;64122;51.988;5.892;2023-04-25T09:35:37;6.13;;;1.50;;
75362;SDS011;64122;51.988;5.892;2023-04-25T09:38:11;6.45;;;1.30;;
75362;SDS011;64122;51.988;5.892;2023-04-25T09:41:09;5.93;;;1.13;;
75362;SDS011;64122;51.988;5.892;2023-04-25T09:43:44;6.75;;;1.02;;
75362;SDS011;64122;51.988;5.892;2023-04-25T09:46:14;4.25;;;1.00;;
75362;SDS011;64122;51.988;5.892;2023-04-25T09:48:51;6.30;;;1.30;;
75362;SDS011;64122;51.988;5.892;2023-04-25T09:51:47;5.15;;;1.10;;
75362;SDS011;64122;51.988;5.892;2023-04-25T09:54:25;5.70;;;0.98;;
75362;SDS011;64122;51.988;5.892;2023-04-25T09:57:16;6.47;;;1.40;;
75362;SDS011;64122;51.988;5.892;2023-04-25T09:59:48;6.18;;;1.08;;
75362;SDS011;64122;51.988;5.892;2023-04-25T10:02:20;5.13;;;1.15;;
75362;SDS011;64122;51.988;5.892;2023-04-25T10:04:54;5.47;;;1.20;;
75362;SDS011;64122;51.988;5.892;2023-04-25T10:07:30;6.55;;;1.20;;
75362;SDS011;64122;51.988;5.892;2023-04-25T10:10:07;4.50;;;0.90;;
75362;SDS011;64122;51.988;5.892;2023-04-25T10:12:39;5.15;;;1.02;;
75362;SDS011;64122;51.988;5.892;2023-04-25T10:17:39;6.03;;;1.33;;
75362;SDS011;64122;51.988;5.892;2023-04-25T10:20:08;4.78;;;0.85;;
75362;SDS011;64122;51.988;5.892;2023-04-25T10:22:39;6.07;;;0.88;;
75362;SDS011;64122;51.988;5.892;2023-04-25T10:25:11;4.45;;;0.90;;
75362;SDS011;64122;51.988;5.892;2023-04-25T10:27:43;5.82;;;1.50;;
75362;SDS011;64122;51.988;5.892;2023-04-25T10:30:13;6.32;;;1.08;;
75362;SDS011;64122;51.988;5.892;2023-04-25T10:32:43;9.00;;;1.10;;
75362;SDS011;64122;51.988;5.892;2023-04-25T10:35:16;4.38;;;1.00;;
75362;SDS011;64122;51.988;5.892;2023-04-25T10:37:56;5.60;;;1.27;;
75362;SDS011;64122;51.988;5.892;2023-04-25T10:40:27;8.18;;;1.23;;
75362;SDS011;64122;51.988;5.892;2023-04-25T10:43:32;7.50;;;1.30;;
75362;SDS011;64122;51.988;5.892;2023-04-25T10:46:17;3.88;;;0.73;;
75362;SDS011;64122;51.988;5.892;2023-04-25T10:48:48;6.50;;;1.27;;
75362;SDS011;64122;51.988;5.892;2023-04-25T10:51:19;6.47;;;1.20;;
75362;SDS011;64122;51.988;5.892;2023-04-25T10:53:59;8.90;;;1.13;;
75362;SDS011;64122;51.988;5.892;2023-04-25T10:56:30;8.25;;;1.40;;
75362;SDS011;64122;51.988;5.892;2023-04-25T10:59:07;6.22;;;1.38;;
75362;SDS011;64122;51.988;5.892;2023-04-25T11:01:39;9.27;;;2.05;;
75362;SDS011;64122;51.988;5.892;2023-04-25T11:04:19;4.32;;;1.00;;
75362;SDS011;64122;51.988;5.892;2023-04-25T11:07:04;10.60;;;1.30;;
75362;SDS011;64122;51.988;5.892;2023-04-25T11:09:39;7.78;;;1.25;;
75362;SDS011;64122;51.988;5.892;2023-04-25T11:12:09;8.90;;;1.35;;
75362;SDS011;64122;51.988;5.892;2023-04-25T11:14:43;3.35;;;1.00;;
75362;SDS011;64122;51.988;5.892;2023-04-25T11:17:12;5.78;;;1.00;;
75362;SDS011;64122;51.988;5.892;2023-04-25T11:19:41;5.63;;;1.30;;
75362;SDS011;64122;51.988;5.892;2023-04-25T11:22:11;9.00;;;1.30;;
75362;SDS011;64122;51.988;5.892;2023-04-25T11:24:41;3.67;;;1.02;;
75362;SDS011;64122;51.988;5.892;2023-04-25T11:27:10;4.07;;;1.08;;
75362;SDS011;64122;51.988;5.892;2023-04-25T11:29:40;3.67;;;0.80;;
75362;SDS011;64122;51.988;5.892;2023-04-25T11:32:14;7.20;;;1.15;;
75362;SDS011;64122;51.988;5.892;2023-04-25T11:34:44;5.63;;;1.10;;
75362;SDS011;64122;51.988;5.892;2023-04-25T11:37:13;3.30;;;0.65;;
75362;SDS011;64122;51.988;5.892;2023-04-25T11:39:43;3.60;;;0.85;;
75362;SDS011;64122;51.988;5.892;2023-04-25T11:42:14;5.45;;;0.88;;
75362;SDS011;64122;51.988;5.892;2023-04-25T11:44:46;2.33;;;0.63;;
75362;SDS011;64122;51.988;5.892;2023-04-25T11:47:15;5.28;;;1.02;;
75362;SDS011;64122;51.988;5.892;2023-04-25T11:49:45;4.25;;;1.20;;
75362;SDS011;64122;51.988;5.892;2023-04-25T11:52:14;8.45;;;1.40;;
75362;SDS011;64122;51.988;5.892;2023-04-25T11:54:44;10.25;;;1.40;;
75362;SDS011;64122;51.988;5.892;2023-04-25T11:57:13;4.68;;;1.10;;
75362;SDS011;64122;51.988;5.892;2023-04-25T11:59:42;7.85;;;2.58;;
75362;SDS011;64122;51.988;5.892;2023-04-25T12:02:23;4.85;;;1.20;;
75362;SDS011;64122;51.988;5.892;2023-04-25T12:04:54;4.45;;;1.13;;
75362;SDS011;64122;51.988;5.892;2023-04-25T12:07:29;4.50;;;1.00;;
75362;SDS011;64122;51.988;5.892;2023-04-25T12:09:58;4.97;;;0.95;;
75362;SDS011;64122;51.988;5.892;2023-04-25T12:12:28;7.18;;;1.40;;
75362;SDS011;64122;51.988;5.892;2023-04-25T12:15:11;5.22;;;1.10;;
75362;SDS011;64122;51.988;5.892;2023-04-25T12:17:44;6.43;;;1.25;;
75362;SDS011;64122;51.988;5.892;2023-04-25T12:20:14;3.53;;;1.00;;
75362;SDS011;64122;51.988;5.892;2023-04-25T12:22:46;8.23;;;1.13;;
75362;SDS011;64122;51.988;5.892;2023-04-25T12:28:10;3.78;;;1.00;;
75362;SDS011;64122;51.988;5.892;2023-04-25T12:30:56;5.05;;;1.23;;
75362;SDS011;64122;51.988;5.892;2023-04-25T12:33:28;3.17;;;0.82;;
75362;SDS011;64122;51.988;5.892;2023-04-25T12:35:59;3.88;;;1.00;;
75362;SDS011;64122;51.988;5.892;2023-04-25T12:38:30;3.53;;;0.95;;
75362;SDS011;64122;51.988;5.892;2023-04-25T12:41:03;6.47;;;1.00;;
75362;SDS011;64122;51.988;5.892;2023-04-25T12:43:33;7.28;;;1.27;;
75362;SDS011;64122;51.988;5.892;2023-04-25T12:46:05;7.95;;;1.50;;
75362;SDS011;64122;51.988;5.892;2023-04-25T12:48:35;4.93;;;1.02;;
75362;SDS011;64122;51.988;5.892;2023-04-25T12:51:04;6.82;;;1.58;;
75362;SDS011;64122;51.988;5.892;2023-04-25T12:53:33;6.32;;;1.23;;
75362;SDS011;64122;51.988;5.892;2023-04-25T12:56:05;7.15;;;1.27;;
75362;SDS011;64122;51.988;5.892;2023-04-25T12:58:35;10.52;;;1.60;;
75362;SDS011;64122;51.988;5.892;2023-04-25T13:01:06;5.88;;;1.25;;
75362;SDS011;64122;51.988;5.892;2023-04-25T13:03:37;4.22;;;1.00;;
75362;SDS011;64122;51.988;5.892;2023-04-25T13:06:06;5.70;;;0.90;;
75362;SDS011;64122;51.988;5.892;2023-04-25T13:08:36;8.00;;;1.20;;
75362;SDS011;64122;51.988;5.892;2023-04-25T13:11:05;7.57;;;1.35;;
75362;SDS011;64122;51.988;5.892;2023-04-25T13:13:34;10.32;;;3.35;;
75362;SDS011;64122;51.988;5.892;2023-04-25T13:16:07;9.07;;;1.48;;
75362;SDS011;64122;51.988;5.892;2023-04-25T13:18:42;4.85;;;1.05;;
75362;SDS011;64122;51.988;5.892;2023-04-25T13:21:11;9.55;;;1.15;;
75362;SDS011;64122;51.988;5.892;2023-04-25T13:23:40;5.20;;;1.02;;
75362;SDS011;64122;51.988;5.892;2023-04-25T13:26:12;4.47;;;1.38;;
75362;SDS011;64122;51.988;5.892;2023-04-25T13:28:41;5.60;;;1.20;;
75362;SDS011;64122;51.988;5.892;2023-04-25T13:31:13;6.47;;;0.85;;
75362;SDS011;64122;51.988;5.892;2023-04-25T13:33:43;5.25;;;1.33;;
75362;SDS011;64122;51.988;5.892;2023-04-25T13:36:12;4.60;;;1.20;;
75362;SDS011;64122;51.988;5.892;2023-04-25T13:38:42;5.85;;;1.10;;
75362;SDS011;64122;51.988;5.892;2023-04-25T13:41:13;6.03;;;1.13;;
75362;SDS011;64122;51.988;5.892;2023-04-25T13:43:44;2.83;;;0.90;;
75362;SDS011;64122;51.988;5.892;2023-04-25T13:46:18;6.63;;;1.15;;
75362;SDS011;64122;51.988;5.892;2023-04-25T13:48:47;3.50;;;1.00;;
75362;SDS011;64122;51.988;5.892;2023-04-25T13:51:16;4.28;;;1.02;;
75362;SDS011;64122;51.988;5.892;2023-04-25T13:53:46;6.85;;;1.42;;
75362;SDS011;64122;51.988;5.892;2023-04-25T13:56:15;6.35;;;1.00;;
75362;SDS011;64122;51.988;5.892;2023-04-25T13:58:45;3.28;;;1.00;;
75362;SDS011;64122;51.988;5.892;2023-04-25T14:01:14;5.38;;;1.45;;
75362;SDS011;64122;51.988;5.892;2023-04-25T14:03:46;3.30;;;0.90;;
75362;SDS011;64122;51.988;5.892;2023-04-25T14:06:15;4.85;;;0.90;;
75362;SDS011;64122;51.988;5.892;2023-04-25T14:11:17;4.15;;;0.80;;
75362;SDS011;64122;51.988;5.892;2023-04-25T14:13:47;5.57;;;1.10;;
75362;SDS011;64122;51.988;5.892;2023-04-25T14:16:16;4.35;;;1.02;;
75362;SDS011;64122;51.988;5.892;2023-04-25T14:18:48;5.32;;;1.02;;
75362;SDS011;64122;51.988;5.892;2023-04-25T14:21:18;4.32;;;1.00;;
75362;SDS011;64122;51.988;5.892;2023-04-25T14:23:47;6.95;;;1.00;;
75362;SDS011;64122;51.988;5.892;2023-04-25T14:26:16;6.00;;;1.10;;
75362;SDS011;64122;51.988;5.892;2023-04-25T14:28:45;6.30;;;1.38;;
75362;SDS011;64122;51.988;5.892;2023-04-25T14:31:15;5.55;;;0.98;;
75362;SDS011;64122;51.988;5.892;2023-04-25T14:33:44;7.13;;;1.15;;
75362;SDS011;64122;51.988;5.892;2023-04-25T14:36:16;7.97;;;1.10;;
75362;SDS011;64122;51.988;5.892;2023-04-25T14:38:46;5.72;;;1.25;;
75362;SDS011;64122;51.988;5.892;2023-04-25T14:41:15;7.18;;;1.30;;
75362;SDS011;64122;51.988;5.892;2023-04-25T14:43:47;5.85;;;0.98;;
75362;SDS011;64122;51.988;5.892;2023-04-25T14:46:16;5.03;;;1.13;;
75362;SDS011;64122;51.988;5.892;2023-04-25T14:48:46;4.50;;;1.10;;
75362;SDS011;64122;51.988;5.892;2023-04-25T14:51:18;5.82;;;1.10;;
75362;SDS011;64122;51.988;5.892;2023-04-25T14:53:47;4.15;;;0.90;;
75362;SDS011;64122;51.988;5.892;2023-04-25T14:56:16;4.10;;;0.88;;
75362;SDS011;64122;51.988;5.892;2023-04-25T14:58:45;40.53;;;23.33;;
75362;SDS011;64122;51.988;5.892;2023-04-25T15:01:15;6.28;;;1.52;;
75362;SDS011;64122;51.988;5.892;2023-04-25T15:03:46;6.45;;;1.20;;
75362;SDS011;64122;51.988;5.892;2023-04-25T15:06:18;5.72;;;1.23;;
75362;SDS011;64122;51.988;5.892;2023-04-25T15:08:47;8.90;;;1.20;;
75362;SDS011;64122;51.988;5.892;2023-04-25T15:11:16;4.95;;;1.10;;
75362;SDS011;64122;51.988;5.892;2023-04-25T15:13:46;4.25;;;1.20;;
75362;SDS011;64122;51.988;5.892;2023-04-25T15:16:15;5.05;;;0.93;;
75362;SDS011;64122;51.988;5.892;2023-04-25T15:18:44;8.57;;;1.25;;
75362;SDS011;64122;51.988;5.892;2023-04-25T15:21:13;3.72;;;1.27;;
75362;SDS011;64122;51.988;5.892;2023-04-25T15:23:45;6.72;;;1.05;;
75362;SDS011;64122;51.988;5.892;2023-04-25T15:26:15;5.88;;;1.08;;
75362;SDS011;64122;51.988;5.892;2023-04-25T15:28:44;7.85;;;1.80;;
75362;SDS011;64122;51.988;5.892;2023-04-25T15:31:14;8.23;;;1.38;;
75362;SDS011;64122;51.988;5.892;2023-04-25T15:33:43;7.03;;;1.05;;
75362;SDS011;64122;51.988;5.892;2023-04-25T15:36:12;7.43;;;2.15;;